Time;durP1;ratioP1;P1;durP2;ratioP2;P2;SDS_P1;SDS_P2;PMS_P1;PMS_P2;Temp;Humidity;BMP_temperature;BMP_pressure;BME280_temperature;BME280_humidity;BME280_pressure;Samples;Min_cycle;Max_cycle;Signal;HPM_P1;HPM_P2
2022/05/17 00:00:13;;;;;;;4.88;3.20;;;;;;;17.41;100.00;100085.00;10483088;28;20067;-77
2022/05/17 00:05:14;;;;;;;5.43;3.60;;;;;;;17.23;100.00;100078.13;10503356;28;20040;-77
2022/05/17 00:10:17;;;;;;;3.65;3.05;;;;;;;17.03;100.00;100065.97;10468635;28;20048;-76
2022/05/17 00:15:18;;;;;;;3.25;3.05;;;;;;;16.99;100.00;100067.09;10467525;28;20132;-77
2022/05/17 00:20:23;;;;;;;2.95;2.75;;;;;;;17.12;100.00;100060.97;10501198;28;20044;-76
2022/05/17 00:25:25;;;;;;;2.35;2.15;;;;;;;17.19;100.00;100056.19;10500879;28;20093;-77
2022/05/17 00:30:27;;;;;;;2.83;2.20;;;;;;;17.15;100.00;100060.81;10483595;28;20457;-77
2022/05/17 00:35:28;;;;;;;2.42;2.10;;;;;;;16.98;100.00;100071.56;10502119;28;20535;-77
2022/05/17 00:40:30;;;;;;;3.03;2.47;;;;;;;16.75;100.00;100077.34;10490682;28;20040;-77
2022/05/17 00:45:45;;;;;;;4.68;3.15;;;;;;;16.80;100.00;100080.56;10506530;28;20072;-76
2022/05/17 00:50:51;;;;;;;3.15;2.85;;;;;;;16.83;100.00;100091.03;10509653;28;20486;-77
2022/05/17 00:55:59;;;;;;;3.40;3.10;;;;;;;16.75;100.00;100083.50;10505593;28;20045;-76
2022/05/17 01:01:10;;;;;;;4.07;3.45;;;;;;;16.88;100.00;100083.66;10470780;28;20048;-77
2022/05/17 01:06:12;;;;;;;4.20;3.90;;;;;;;17.08;100.00;100082.50;10491763;28;20062;-76
2022/05/17 01:11:15;;;;;;;4.70;4.30;;;;;;;16.94;100.00;100085.09;10493149;28;20057;-76
2022/05/17 01:16:17;;;;;;;5.07;4.63;;;;;;;16.94;100.00;100082.44;10512456;28;20098;-76
2022/05/17 01:21:19;;;;;;;5.32;4.82;;;;;;;17.02;100.00;100089.03;10522269;28;20060;-76
2022/05/17 01:26:25;;;;;;;6.00;5.60;;;;;;;16.96;100.00;100084.09;10527613;28;20453;-76
2022/05/17 01:31:27;;;;;;;5.85;5.43;;;;;;;16.97;100.00;100091.09;10508636;28;20052;-77
2022/05/17 01:36:30;;;;;;;5.72;5.22;;;;;;;17.03;100.00;100072.16;10519455;28;20051;-77
2022/05/17 01:41:32;;;;;;;6.60;6.10;;;;;;;17.00;100.00;100076.78;10504185;28;20094;-77
2022/05/17 01:46:33;;;;;;;7.20;6.70;;;;;;;16.80;100.00;100083.22;10483061;28;20041;-76
2022/05/17 01:51:35;;;;;;;7.47;6.97;;;;;;;16.94;100.00;100077.13;10508396;28;20406;-76
2022/05/17 01:56:36;;;;;;;7.68;7.05;;;;;;;16.98;100.00;100079.53;10512860;28;20379;-77
2022/05/17 02:01:38;;;;;;;8.60;7.90;;;;;;;16.95;100.00;100079.69;10511320;28;20048;-77
2022/05/17 02:06:40;;;;;;;8.55;7.90;;;;;;;16.93;100.00;100073.63;10487477;28;20406;-76
2022/05/17 02:11:43;;;;;;;10.07;9.38;;;;;;;16.84;100.00;100087.44;10401854;22;20062;-84
2022/05/17 02:16:45;;;;;;;9.27;8.57;;;;;;;16.85;100.00;100091.78;10312797;28;20046;-85
2022/05/17 02:21:47;;;;;;;10.82;10.02;;;;;;;16.89;100.00;100077.41;10364813;28;20450;-84
2022/05/17 02:26:49;;;;;;;10.45;9.75;;;;;;;16.99;100.00;100080.38;10379352;28;20048;-84
2022/05/17 02:31:52;;;;;;;10.40;9.70;;;;;;;16.92;100.00;100079.88;10379402;28;20062;-84
2022/05/17 02:36:56;;;;;;;12.38;11.45;;;;;;;16.76;100.00;100093.16;10378495;28;20051;-84
2022/05/17 02:42:05;;;;;;;14.10;12.98;;;;;;;16.77;100.00;100088.72;10372623;28;20495;-84
2022/05/17 02:47:11;;;;;;;13.25;12.45;;;;;;;16.94;100.00;100088.59;10379304;28;20035;-84
2022/05/17 02:52:17;;;;;;;13.73;12.90;;;;;;;16.81;100.00;100091.09;10395348;28;20055;-84
2022/05/17 02:57:23;;;;;;;15.98;14.82;;;;;;;16.72;100.00;100091.63;10310991;28;20043;-84
2022/05/17 03:02:26;;;;;;;17.00;15.88;;;;;;;16.65;100.00;100095.53;10344021;28;20042;-84
2022/05/17 03:07:28;;;;;;;17.02;16.00;;;;;;;16.72;100.00;100096.03;10394553;28;20054;-84
2022/05/17 03:12:29;;;;;;;19.65;18.10;;;;;;;16.51;100.00;100112.25;10293499;28;20051;-83
2022/05/17 03:17:31;;;;;;;18.15;17.05;;;;;;;16.58;100.00;100113.59;10375687;28;20054;-84
2022/05/17 03:22:33;;;;;;;19.92;18.63;;;;;;;16.50;100.00;100102.53;10304249;28;20039;-83
2022/05/17 03:27:34;;;;;;;17.23;16.13;;;;;;;16.50;100.00;100107.00;10377077;28;20061;-83
2022/05/17 03:32:36;;;;;;;15.93;14.80;;;;;;;16.48;100.00;100112.41;10322200;28;20102;-83
2022/05/17 03:37:38;;;;;;;15.45;14.55;;;;;;;16.29;100.00;100109.00;10405200;28;20068;-83
2022/05/17 03:42:40;;;;;;;16.58;15.32;;;;;;;16.32;100.00;100125.63;10319891;28;20051;-83
2022/05/17 03:47:42;;;;;;;14.23;13.15;;;;;;;16.33;100.00;100127.34;10404119;28;20054;-83
2022/05/17 03:52:44;;;;;;;14.68;13.68;;;;;;;16.32;100.00;100130.94;10403035;28;20054;-83
2022/05/17 03:57:49;;;;;;;15.30;14.25;;;;;;;16.20;100.00;100131.59;10385714;28;20508;-84
2022/05/17 04:02:50;;;;;;;14.05;12.95;;;;;;;16.20;100.00;100142.19;10369822;28;20445;-84
2022/05/17 04:07:53;;;;;;;15.05;14.07;;;;;;;15.91;100.00;100156.16;10384702;28;20035;-84
2022/05/17 04:12:55;;;;;;;14.30;13.38;;;;;;;15.80;100.00;100176.09;10389841;28;20051;-84
2022/05/17 04:17:57;;;;;;;12.57;11.65;;;;;;;15.59;100.00;100163.91;10327558;28;20129;-85
2022/05/17 04:22:59;;;;;;;7.68;7.07;;;;;;;15.52;100.00;100166.00;10291159;28;20042;-85
2022/05/17 04:28:07;;;;;;;5.30;4.93;;;;;;;15.37;100.00;100177.38;10313288;28;20500;-85
2022/05/17 04:33:08;;;;;;;6.22;5.65;;;;;;;15.08;100.00;100179.63;10375752;28;20458;-85
2022/05/17 04:38:10;;;;;;;6.07;5.68;;;;;;;15.00;100.00;100189.72;10374008;28;20054;-85
2022/05/17 04:43:12;;;;;;;7.47;6.63;;;;;;;15.07;100.00;100200.88;10371437;28;20046;-85
2022/05/17 04:48:13;;;;;;;8.27;7.63;;;;;;;15.04;100.00;100201.03;10400914;28;20042;-83
2022/05/17 04:53:15;;;;;;;8.43;7.88;;;;;;;15.11;100.00;100205.97;10339554;28;20042;-84
2022/05/17 04:58:16;;;;;;;7.50;7.00;;;;;;;15.15;100.00;100206.69;10398415;28;20104;-85
2022/05/17 05:03:18;;;;;;;7.82;7.30;;;;;;;15.19;100.00;100213.56;10309747;28;20081;-85
2022/05/17 05:08:20;;;;;;;9.15;8.38;;;;;;;15.06;100.00;100223.88;10373152;28;20051;-85
2022/05/17 05:13:28;;;;;;;9.30;8.60;;;;;;;14.96;100.00;100227.00;10368682;28;20047;-85
2022/05/17 05:18:29;;;;;;;8.13;7.45;;;;;;;15.07;100.00;100232.66;10304879;28;20533;-85
2022/05/17 05:23:32;;;;;;;9.20;8.50;;;;;;;14.95;100.00;100235.88;10370732;28;20069;-85
2022/05/17 05:28:35;;;;;;;9.40;8.50;;;;;;;14.84;100.00;100252.25;10368817;28;20476;-84
2022/05/17 05:33:36;;;;;;;9.75;9.02;;;;;;;14.70;100.00;100246.72;10309998;28;20054;-83
2022/05/17 05:38:38;;;;;;;10.15;8.77;;;;;;;14.66;100.00;100250.47;10377607;28;20047;-84
2022/05/17 05:43:41;;;;;;;9.18;8.40;;;;;;;14.90;100.00;100262.56;10376112;28;20102;-85
2022/05/17 05:48:43;;;;;;;9.93;9.23;;;;;;;14.74;100.00;100272.13;10291255;28;20055;-83
2022/05/17 05:53:44;;;;;;;9.50;8.65;;;;;;;14.59;100.00;100279.81;10356391;28;20061;-83
2022/05/17 05:58:46;;;;;;;9.23;8.50;;;;;;;14.79;100.00;100271.00;10374630;28;20053;-84
2022/05/17 06:03:47;;;;;;;9.38;8.48;;;;;;;14.65;100.00;100278.69;10408749;28;20051;-84
2022/05/17 06:08:49;;;;;;;9.45;8.68;;;;;;;14.46;100.00;100281.25;10310784;28;20476;-84
2022/05/17 06:13:51;;;;;;;8.10;7.38;;;;;;;14.46;100.00;100281.25;10376708;28;20389;-84
2022/05/17 06:18:54;;;;;;;9.10;8.30;;;;;;;14.55;100.00;100291.47;10311320;28;20038;-84
2022/05/17 06:23:56;;;;;;;7.60;7.00;;;;;;;14.77;100.00;100301.94;10310541;28;20043;-85
2022/05/17 06:28:57;;;;;;;8.13;7.43;;;;;;;14.83;100.00;100304.34;10372386;28;20073;-84
2022/05/17 06:33:59;;;;;;;10.05;9.05;;;;;;;14.57;100.00;100312.56;10373605;28;20046;-84
2022/05/17 06:39:01;;;;;;;9.15;8.25;;;;;;;14.59;100.00;100316.84;10370565;28;20055;-84
2022/05/17 06:44:03;;;;;;;9.00;8.23;;;;;;;14.62;100.00;100316.72;10371835;28;20066;-84
2022/05/17 06:49:05;;;;;;;9.27;8.38;;;;;;;14.70;100.00;100320.81;10372508;28;20047;-84
2022/05/17 06:54:07;;;;;;;8.10;7.43;;;;;;;14.88;100.00;100330.59;10288282;28;20050;-84
2022/05/17 06:59:09;;;;;;;9.52;7.47;;;;;;;14.99;100.00;100333.59;10304117;28;20125;-85
2022/05/17 07:04:10;;;;;;;8.52;7.88;;;;;;;14.89;100.00;100343.75;10373242;28;20051;-84
2022/05/17 07:09:12;;;;;;;7.70;7.00;;;;;;;14.96;100.00;100341.66;10372594;28;20501;-85
2022/05/17 07:14:15;;;;;;;7.97;7.28;;;;;;;15.12;100.00;100347.16;10371835;28;20047;-85
2022/05/17 07:19:17;;;;;;;7.80;7.20;;;;;;;15.18;100.00;100352.16;10371401;28;20122;-84
2022/05/17 07:24:34;;;;;;;7.50;6.88;;;;;;;14.97;100.00;100363.75;10392816;28;20042;-84
2022/05/17 07:29:36;;;;;;;7.25;6.57;;;;;;;14.98;100.00;100366.31;10419011;28;20082;-83
2022/05/17 07:34:38;;;;;;;7.15;6.50;;;;;;;14.77;100.00;100359.31;10384488;28;20043;-84
2022/05/17 07:39:40;;;;;;;6.75;6.13;;;;;;;15.02;100.00;100370.53;10400045;28;20057;-85
2022/05/17 07:44:41;;;;;;;6.80;6.20;;;;;;;15.00;100.00;100375.03;10304400;28;20047;-85
2022/05/17 07:49:49;;;;;;;6.60;6.00;;;;;;;15.01;100.00;100389.16;10380352;28;20053;-84
2022/05/17 07:54:50;;;;;;;7.78;7.07;;;;;;;15.14;100.00;100391.19;10377947;28;20043;-85
2022/05/17 07:59:52;;;;;;;6.68;6.07;;;;;;;15.31;100.00;100387.75;10311363;28;20380;-84
2022/05/17 08:04:53;;;;;;;6.25;5.75;;;;;;;15.27;100.00;100401.19;10291841;28;20068;-84
2022/05/17 08:09:55;;;;;;;6.65;6.00;;;;;;;15.39;100.00;100398.00;10445977;22;20052;-77
2022/05/17 08:14:56;;;;;;;7.20;6.50;;;;;;;15.27;100.00;100417.97;10457802;28;20037;-77
2022/05/17 08:19:58;;;;;;;8.38;7.72;;;;;;;15.41;100.00;100412.03;10457682;28;20069;-77
2022/05/17 08:30:24;;;;;;;8.93;8.18;;;;;;;15.36;100.00;100422.84;10439902;28;20413;-77
2022/05/17 08:35:25;;;;;;;8.82;8.13;;;;;;;15.32;100.00;100423.91;10441028;28;20433;-77
2022/05/17 08:40:30;;;;;;;8.32;7.63;;;;;;;15.38;100.00;100434.22;10458201;28;20041;-77
2022/05/17 08:45:43;;;;;;;8.52;7.80;;;;;;;15.43;100.00;100428.72;10456226;28;20095;-77
2022/05/17 08:50:47;;;;;;;7.78;7.15;;;;;;;15.85;98.57;100431.22;10457345;28;20052;-77
2022/05/17 08:55:50;;;;;;;7.93;7.22;;;;;;;15.92;98.08;100431.75;10457621;28;20040;-77
2022/05/17 09:00:57;;;;;;;7.93;7.32;;;;;;;15.99;96.40;100429.69;10458043;28;20053;-77
2022/05/17 09:06:10;;;;;;;;;;;;;;;15.86;100.00;100443.53;10458127;28;20086;-77
2022/05/17 09:11:29;;;;;;;9.13;7.78;;;;;;;16.01;98.65;100447.22;10457571;28;20333;-77
2022/05/17 09:16:36;;;;;;;7.65;7.00;;;;;;;16.27;94.78;100439.81;10439129;28;20041;-77
2022/05/17 09:21:42;;;;;;;8.02;7.32;;;;;;;16.35;97.15;100442.97;10464819;28;20059;-77
2022/05/17 09:26:51;;;;;;;8.95;7.80;;;;;;;16.50;94.88;100442.19;10458584;28;20542;-77
2022/05/17 09:31:59;;;;;;;9.50;8.38;;;;;;;16.34;94.00;100449.22;10458421;28;20438;-77
2022/05/17 09:37:16;;;;;;;8.38;7.60;;;;;;;16.37;92.30;100454.34;10455907;28;20052;-77
2022/05/17 09:42:29;;;;;;;7.60;7.10;;;;;;;16.46;93.60;100458.34;10456631;28;20037;-77
2022/05/17 09:47:33;;;;;;;8.43;7.82;;;;;;;16.25;92.73;100458.47;10458581;28;20044;-78
2022/05/17 09:52:38;;;;;;;8.90;8.10;;;;;;;16.24;94.04;100475.28;10462792;28;20083;-78
2022/05/17 09:57:52;;;;;;;9.32;8.65;;;;;;;16.39;94.70;100474.56;10459027;28;20047;-77
2022/05/17 10:03:04;;;;;;;9.07;8.32;;;;;;;16.36;93.25;100490.63;10458623;28;20077;-78
2022/05/17 10:08:12;;;;;;;9.05;8.35;;;;;;;16.68;92.93;100479.38;10441104;28;20037;-78
2022/05/17 10:13:32;;;;;;;8.73;8.02;;;;;;;16.77;91.16;100495.72;10459014;28;20052;-78
2022/05/17 10:18:48;;;;;;;8.05;7.40;;;;;;;17.23;86.89;100495.19;10468563;28;20103;-77
2022/05/17 10:24:12;;;;;;;8.00;7.40;;;;;;;16.93;87.29;100492.31;10464996;28;20037;-79
2022/05/17 10:29:33;;;;;;;8.18;7.45;;;;;;;16.69;90.69;100497.00;10470513;28;20033;-78
2022/05/17 10:34:41;;;;;;;8.23;7.45;;;;;;;16.58;88.93;100493.09;10472169;28;20045;-78
2022/05/17 10:39:55;;;;;;;7.75;7.07;;;;;;;16.57;89.21;100495.84;10434241;28;20056;-79
2022/05/17 10:44:58;;;;;;;7.28;6.57;;;;;;;16.63;86.69;100493.72;10467578;28;20082;-79
2022/05/17 10:50:17;;;;;;;8.45;7.65;;;;;;;16.74;85.41;100500.34;10466559;28;20052;-77
2022/05/17 10:55:32;;;;;;;6.88;6.28;;;;;;;17.01;85.42;100504.25;10467708;28;20067;-78
2022/05/17 11:00:43;;;;;;;6.47;5.95;;;;;;;17.40;83.34;100503.16;10472013;28;20047;-77
2022/05/17 11:06:15;;;;;;;5.63;5.22;;;;;;;17.77;79.24;100503.88;10450025;28;20052;-77
2022/05/17 11:11:26;;;;;;;6.63;5.90;;;;;;;18.11;76.73;100506.41;10452860;28;20053;-77
2022/05/17 11:16:37;;;;;;;5.43;4.93;;;;;;;18.25;74.29;100495.00;10465800;28;20052;-78
2022/05/17 11:21:54;;;;;;;5.13;4.55;;;;;;;18.82;70.90;100492.63;10463593;28;20045;-78
2022/05/17 11:27:08;;;;;;;5.38;4.57;;;;;;;19.09;70.59;100499.94;10460950;28;20103;-77
2022/05/17 11:32:23;;;;;;;5.25;3.80;;;;;;;19.05;70.26;100488.59;10462217;28;20045;-78
2022/05/17 11:37:33;;;;;;;4.93;4.43;;;;;;;18.92;70.55;100497.41;10461777;28;20475;-77
2022/05/17 11:48:53;;;;;;;4.22;3.83;;;;;;;19.15;69.23;100492.41;10460868;28;20159;-78
2022/05/17 11:53:55;;;;;;;4.95;4.28;;;;;;;19.76;68.33;100481.63;10444248;28;20099;-78
2022/05/17 11:58:59;;;;;;;5.47;4.07;;;;;;;20.07;65.07;100481.41;10464749;28;20139;-80
2022/05/17 12:04:20;;;;;;;4.93;4.53;;;;;;;19.99;64.21;100486.38;10463177;28;20049;-78
2022/05/17 12:09:46;;;;;;;4.80;4.30;;;;;;;19.84;65.56;100477.53;10466330;28;20068;-78
2022/05/17 12:15:16;;;;;;;4.35;3.97;;;;;;;19.81;66.56;100490.22;10459415;28;20049;-78
2022/05/17 12:20:26;;;;;;;4.68;4.28;;;;;;;19.87;67.57;100487.13;10472018;28;20047;-79
2022/05/17 12:25:47;;;;;;;5.22;4.72;;;;;;;19.80;66.01;100477.84;10467676;28;20041;-77
2022/05/17 12:31:15;;;;;;;5.32;3.85;;;;;;;19.89;65.72;100470.09;10445566;28;20045;-78
2022/05/17 12:36:26;;;;;;;5.00;4.53;;;;;;;20.39;63.41;100481.13;10461772;28;20067;-78
2022/05/17 12:46:57;;;;;;;4.73;3.33;;;;;;;20.36;61.78;100478.66;10461489;28;20041;-79
2022/05/17 12:52:09;;;;;;;4.05;3.70;;;;;;;20.16;62.30;100487.97;10462241;28;20405;-78
2022/05/17 12:57:31;;;;;;;3.92;3.63;;;;;;;20.40;61.60;100482.84;10463266;28;20075;-78
2022/05/17 13:02:41;;;;;;;3.67;3.38;;;;;;;20.24;62.91;100483.00;10464328;28;20048;-79
2022/05/17 13:07:43;;;;;;;5.10;4.05;;;;;;;20.55;62.26;100483.69;10432443;28;20473;-78
2022/05/17 13:12:44;;;;;;;4.10;3.70;;;;;;;20.69;61.51;100478.28;10446893;28;20502;-78
2022/05/17 13:17:53;;;;;;;4.75;3.53;;;;;;;20.63;59.48;100481.38;10433327;28;20049;-78
2022/05/17 13:22:56;;;;;;;6.05;4.10;;;;;;;20.40;61.92;100485.50;10447131;28;20053;-79
2022/05/17 13:27:58;;;;;;;5.72;3.75;;;;;;;19.94;60.98;100488.47;10494562;28;20045;-77
2022/05/17 13:33:01;;;;;;;4.75;4.35;;;;;;;19.82;63.29;100489.25;10490174;28;20057;-77
2022/05/17 13:38:06;;;;;;;5.43;4.20;;;;;;;19.97;64.37;100490.97;10471173;28;20037;-78
2022/05/17 13:43:36;;;;;;;4.80;4.43;;;;;;;19.67;66.37;100490.22;10468316;28;20136;-79
2022/05/17 13:48:47;;;;;;;5.25;4.80;;;;;;;19.50;67.87;100488.56;10463905;28;20099;-78
2022/05/17 13:54:03;;;;;;;5.57;5.18;;;;;;;19.57;68.55;100498.75;10478363;28;20103;-78
2022/05/17 13:59:05;;;;;;;6.68;5.82;;;;;;;19.75;67.24;100490.59;10465152;28;20045;-78
2022/05/17 14:04:07;;;;;;;6.22;5.72;;;;;;;19.71;67.29;100494.41;10479502;28;20055;-77
2022/05/17 14:14:31;;;;;;;5.97;5.47;;;;;;;19.70;65.23;100496.22;10447744;28;20093;-77
2022/05/17 14:19:34;;;;;;;5.90;5.30;;;;;;;19.94;64.55;100487.63;10465884;28;20045;-77
2022/05/17 14:24:36;;;;;;;5.30;4.85;;;;;;;19.83;65.71;100493.63;10462650;28;20071;-77
2022/05/17 14:29:39;;;;;;;4.38;4.00;;;;;;;19.83;63.44;100491.84;10464546;28;20491;-78
2022/05/17 14:34:42;;;;;;;4.90;4.50;;;;;;;19.42;64.59;100487.22;10463314;28;20048;-78
2022/05/17 14:39:44;;;;;;;6.00;5.40;;;;;;;19.34;66.15;100486.81;10430432;28;20049;-76
2022/05/17 14:44:47;;;;;;;6.53;4.50;;;;;;;19.39;63.61;100481.22;10466908;28;20041;-78
2022/05/17 14:49:54;;;;;;;5.80;4.78;;;;;;;19.26;64.18;100493.59;10456564;28;20124;-78
2022/05/17 14:54:56;;;;;;;4.45;3.63;;;;;;;19.53;64.27;100489.22;10470667;28;20072;-77
2022/05/17 14:59:57;;;;;;;3.85;3.00;;;;;;;19.62;62.68;100485.19;10450938;28;20056;-76
2022/05/17 15:04:59;;;;;;;4.25;3.22;;;;;;;20.27;61.72;100474.75;10465046;28;20053;-76
2022/05/17 15:10:09;;;;;;;4.93;2.65;;;;;;;20.88;58.11;100476.06;10448930;28;20144;-77
2022/05/17 15:15:11;;;;;;;4.05;2.88;;;;;;;21.73;50.45;100480.94;10465777;28;20384;-77
2022/05/17 15:20:14;;;;;;;3.47;2.38;;;;;;;21.53;50.87;100469.84;10461972;28;20037;-77
2022/05/17 15:25:19;;;;;;;2.83;1.92;;;;;;;21.46;52.87;100471.22;10466964;28;20103;-77
2022/05/17 15:30:23;;;;;;;;;;;;;;;21.00;53.64;100463.72;10471642;28;20045;-75
2022/05/17 15:35:30;;;;;;;3.97;2.60;;;;;;;20.53;57.77;100458.88;10472696;28;19928;-77
2022/05/17 15:40:34;;;;;;;3.65;3.35;;;;;;;20.01;57.62;100456.91;10467284;28;20045;-77
2022/05/17 15:45:36;;;;;;;3.28;2.40;;;;;;;19.87;59.99;100455.13;10448048;28;20047;-78
2022/05/17 15:56:05;;;;;;;3.33;2.85;;;;;;;20.27;59.26;100452.56;10464811;28;20040;-77
2022/05/17 16:01:10;;;;;;;4.68;3.25;;;;;;;20.78;57.99;100455.44;10465248;28;20077;-78
2022/05/17 16:06:13;;;;;;;4.72;3.10;;;;;;;21.00;57.64;100452.16;10463997;28;20079;-79
2022/05/17 16:16:36;;;;;;;5.72;3.10;;;;;;;20.61;59.38;100444.06;10464267;28;20033;-78
2022/05/17 16:21:41;;;;;;;4.22;3.83;;;;;;;20.57;61.31;100450.56;10464597;28;20044;-77
2022/05/17 16:26:42;;;;;;;3.45;3.15;;;;;;;20.18;62.17;100451.34;10461546;28;20045;-78
2022/05/17 16:31:44;;;;;;;4.72;3.83;;;;;;;20.52;60.21;100450.03;10460043;28;20095;-77
2022/05/17 16:36:46;;;;;;;4.80;4.03;;;;;;;20.20;62.57;100460.13;10442744;28;20095;-77
2022/05/17 16:41:47;;;;;;;4.15;3.75;;;;;;;20.21;63.19;100458.31;10473735;28;20041;-78
2022/05/17 16:46:51;;;;;;;4.00;3.50;;;;;;;19.92;62.48;100458.34;10464859;28;20048;-78
2022/05/17 16:51:52;;;;;;;4.75;3.97;;;;;;;19.86;64.23;100462.28;10489456;28;20047;-78
2022/05/17 16:56:56;;;;;;;5.72;4.00;;;;;;;19.81;64.50;100461.72;10468839;28;20052;-78
2022/05/17 17:01:57;;;;;;;7.05;3.53;;;;;;;19.74;66.25;100470.19;10466937;28;20049;-77
2022/05/17 17:06:59;;;;;;;4.47;3.92;;;;;;;19.79;65.70;100473.44;10480225;28;20097;-77
2022/05/17 17:12:04;;;;;;;4.90;3.85;;;;;;;19.65;65.44;100472.47;10500363;28;20055;-79
2022/05/17 17:17:07;;;;;;;4.10;3.80;;;;;;;19.55;65.54;100481.97;10482531;28;20112;-77
2022/05/17 17:22:09;;;;;;;4.03;3.60;;;;;;;19.57;63.84;100481.91;10493497;28;20037;-78
2022/05/17 17:27:12;;;;;;;3.47;3.25;;;;;;;19.56;63.53;100483.69;10483840;28;20036;-78
2022/05/17 17:37:36;;;;;;;5.95;5.45;;;;;;;19.14;68.31;100487.19;10466560;28;20091;-78
2022/05/17 17:43:02;;;;;;;4.13;3.58;;;;;;;19.07;69.47;100491.16;10506568;28;20053;-78
2022/05/17 17:48:08;;;;;;;4.75;4.35;;;;;;;19.15;68.81;100500.41;10505757;28;20049;-80
2022/05/17 17:53:09;;;;;;;5.32;4.82;;;;;;;19.00;70.06;100508.47;10485685;28;20044;-78
2022/05/17 17:58:12;;;;;;;5.63;5.00;;;;;;;18.66;72.84;100515.72;10504835;28;20053;-78
2022/05/17 18:03:14;;;;;;;7.00;5.25;;;;;;;18.58;72.92;100528.63;10505103;28;20098;-80
2022/05/17 18:08:17;;;;;;;4.97;4.57;;;;;;;18.52;73.11;100524.50;10505385;28;20060;-79
2022/05/17 18:13:25;;;;;;;5.17;4.67;;;;;;;18.81;71.06;100527.31;10506460;28;20048;-80
2022/05/17 18:18:27;;;;;;;4.80;4.38;;;;;;;18.62;71.65;100528.34;10506557;28;20055;-80
2022/05/17 18:23:29;;;;;;;5.60;4.65;;;;;;;18.41;73.09;100534.88;10504459;28;20045;-78
2022/05/17 18:28:35;;;;;;;4.72;4.32;;;;;;;18.40;73.39;100538.50;10472934;28;20036;-79
2022/05/17 18:33:37;;;;;;;5.20;4.80;;;;;;;18.34;73.61;100544.19;10507642;28;20084;-78
2022/05/17 18:38:38;;;;;;;6.03;5.32;;;;;;;18.17;75.66;100557.56;10505222;28;20049;-78
2022/05/17 18:43:40;;;;;;;5.90;5.43;;;;;;;18.27;74.35;100553.44;10505814;28;20032;-79
2022/05/17 18:48:43;;;;;;;4.50;4.10;;;;;;;18.16;75.51;100570.00;10488092;28;20074;-79
2022/05/17 18:53:48;;;;;;;5.78;5.32;;;;;;;18.10;75.59;100567.66;10503028;28;20045;-79
2022/05/17 18:58:50;;;;;;;6.43;5.82;;;;;;;18.02;76.79;100564.59;10491760;28;20041;-79
2022/05/17 19:03:54;;;;;;;6.80;6.18;;;;;;;17.87;77.87;100568.91;10487347;28;20139;-80
2022/05/17 19:14:16;;;;;;;5.57;5.18;;;;;;;17.69;79.30;100576.03;10478060;28;20045;-80
2022/05/17 19:19:28;;;;;;;5.50;5.10;;;;;;;17.65;79.58;100572.66;10474417;28;20486;-80
2022/05/17 19:24:30;;;;;;;9.77;5.10;;;;;;;17.60;80.69;100574.72;10458041;28;20492;-80
2022/05/17 19:29:35;;;;;;;6.03;5.47;;;;;;;17.61;80.60;100581.72;10457040;28;20041;-80
2022/05/17 19:34:42;;;;;;;6.00;5.50;;;;;;;17.65;80.61;100591.28;10474678;28;20049;-80
2022/05/17 19:39:44;;;;;;;5.85;5.35;;;;;;;17.52;81.18;100586.69;10474549;28;20086;-80
2022/05/17 19:44:45;;;;;;;6.40;5.72;;;;;;;17.55;80.49;100590.03;10474221;28;20041;-80
2022/05/17 19:49:54;;;;;;;5.53;5.13;;;;;;;17.52;81.69;100597.31;10471698;28;20045;-80
2022/05/17 19:54:56;;;;;;;7.45;6.00;;;;;;;17.33;83.57;100589.44;10455685;28;20036;-80
2022/05/17 19:59:58;;;;;;;5.47;5.00;;;;;;;17.33;83.50;100602.72;10474472;28;20037;-80
2022/05/17 20:04:59;;;;;;;6.13;5.50;;;;;;;17.42;82.25;100601.38;10474459;28;20049;-79
2022/05/17 20:10:01;;;;;;;6.35;5.75;;;;;;;17.55;81.47;100603.34;10454209;28;20089;-78
2022/05/17 20:15:05;;;;;;;6.10;5.70;;;;;;;17.47;80.93;100605.53;10451556;28;20051;-78
2022/05/17 20:20:08;;;;;;;5.40;5.00;;;;;;;17.26;84.17;100611.91;10451426;28;20049;-78
2022/05/17 20:25:13;;;;;;;6.32;5.78;;;;;;;17.27;82.84;100616.31;10451158;28;20351;-77
2022/05/17 20:30:15;;;;;;;6.38;5.93;;;;;;;17.31;82.56;100608.13;10466140;28;20074;-79
2022/05/17 20:35:19;;;;;;;6.93;6.32;;;;;;;17.34;82.19;100615.91;10442419;28;20494;-78
2022/05/17 20:40:21;;;;;;;9.88;6.22;;;;;;;17.29;82.35;100617.94;10459976;28;20045;-76
2022/05/17 20:45:24;;;;;;;6.90;6.45;;;;;;;17.13;83.49;100620.53;10460964;28;20044;-78
2022/05/17 20:50:27;;;;;;;9.65;5.68;;;;;;;17.05;85.08;100630.66;10461013;28;20068;-78
2022/05/17 20:55:31;;;;;;;6.10;5.47;;;;;;;17.17;83.18;100623.00;10445253;28;20072;-77
2022/05/17 21:00:32;;;;;;;5.78;5.28;;;;;;;17.26;81.83;100619.88;10463564;28;20048;-77
2022/05/17 21:05:35;;;;;;;6.32;5.85;;;;;;;17.09;82.93;100616.28;10452471;28;20106;-78
2022/05/17 21:10:37;;;;;;;7.00;6.32;;;;;;;17.15;81.44;100621.28;10452238;28;20502;-78
2022/05/17 21:15:38;;;;;;;7.22;6.63;;;;;;;16.96;84.84;100632.91;10461138;28;20052;-78
2022/05/17 21:20:40;;;;;;;7.60;6.90;;;;;;;16.85;84.42;100622.78;10465577;28;20049;-78
2022/05/17 21:25:48;;;;;;;6.65;6.18;;;;;;;16.78;85.78;100616.94;10461412;28;20041;-78
2022/05/17 21:30:50;;;;;;;6.15;5.75;;;;;;;16.70;85.60;100619.06;10459817;28;20045;-78
2022/05/17 21:35:54;;;;;;;6.30;5.90;;;;;;;16.72;86.14;100619.88;10448021;28;20057;-78
2022/05/17 21:40:58;;;;;;;7.22;6.65;;;;;;;16.71;85.92;100626.09;10462599;28;20499;-78
2022/05/17 21:46:04;;;;;;;8.20;7.43;;;;;;;16.61;86.46;100623.00;10462333;28;20135;-78
2022/05/17 21:51:07;;;;;;;8.30;7.70;;;;;;;16.54;86.81;100634.84;10458012;28;20041;-78
2022/05/17 21:56:09;;;;;;;8.02;7.43;;;;;;;16.54;87.77;100641.94;10439775;28;20403;-78
2022/05/17 22:01:11;;;;;;;7.55;7.05;;;;;;;16.66;87.09;100633.41;10466206;28;20037;-78
2022/05/17 22:06:13;;;;;;;7.57;7.07;;;;;;;16.83;85.96;100637.94;10449386;28;20041;-77
2022/05/17 22:16:34;;;;;;;7.03;6.40;;;;;;;16.69;86.52;100641.25;10448245;28;20086;-78
2022/05/17 22:21:40;;;;;;;7.35;6.75;;;;;;;16.64;86.55;100646.75;10466247;28;20116;-77
2022/05/17 22:26:44;;;;;;;7.60;6.80;;;;;;;16.59;86.85;100651.41;10466076;28;20231;-77
2022/05/17 22:31:45;;;;;;;6.63;6.13;;;;;;;16.53;87.46;100654.34;10463965;28;20171;-77
2022/05/17 22:36:47;;;;;;;6.45;5.93;;;;;;;16.49;87.31;100657.22;10463252;28;20052;-77
2022/05/17 22:41:49;;;;;;;7.03;6.53;;;;;;;16.62;86.55;100659.22;10445030;28;20041;-77
2022/05/17 22:47:00;;;;;;;7.45;6.90;;;;;;;16.54;88.03;100660.53;10446142;28;20037;-77
2022/05/17 22:52:02;;;;;;;7.60;7.10;;;;;;;16.47;89.64;100654.66;10463191;28;20045;-77
2022/05/17 22:57:04;;;;;;;7.53;6.93;;;;;;;16.55;89.96;100657.78;10462328;28;20037;-77
2022/05/17 23:02:06;;;;;;;7.82;7.15;;;;;;;16.62;89.04;100655.72;10445320;28;20111;-77
2022/05/17 23:07:07;;;;;;;7.05;6.43;;;;;;;16.58;89.36;100667.41;10463147;28;20037;-77
2022/05/17 23:12:09;;;;;;;7.72;7.15;;;;;;;16.56;90.03;100677.25;10445690;28;20053;-77
2022/05/17 23:17:10;;;;;;;7.18;6.57;;;;;;;16.38;90.54;100677.16;10462270;28;20490;-78
2022/05/17 23:22:12;;;;;;;8.25;7.60;;;;;;;16.39;90.32;100680.66;10452281;28;20458;-77
2022/05/17 23:32:38;;;;;;;8.75;8.15;;;;;;;16.09;93.27;100690.84;10465919;28;20441;-78
2022/05/17 23:37:40;;;;;;;9.02;8.27;;;;;;;15.99;93.78;100681.59;10466031;28;20052;-77
2022/05/17 23:42:41;;;;;;;8.40;7.68;;;;;;;15.90;95.73;100682.84;10459956;28;20049;-77
2022/05/17 23:47:43;;;;;;;8.35;7.65;;;;;;;15.88;96.33;100685.56;10490324;28;20029;-77
2022/05/17 23:52:45;;;;;;;8.32;7.82;;;;;;;15.86;96.29;100687.41;10486648;28;20049;-78
2022/05/17 23:57:47;;;;;;;7.78;7.25;;;;;;;15.84;96.77;100686.59;10500871;28;20113;-77
